Hammon, Oklahoma
Current Conditions -  °F | °C
As of 11:53 AM on Tuesday 27 Jan 2015 (Local Time) from KCSM Reporting Station
Clear Clear  
Wind Chill: 73°   Ceiling: Unl
Heat Index: 73°   Visibility: 10mi
Dew Point: 35°   Wind: 6mph
Humidity: 25%   Direction: 220°SW
Pressure: 30.19"   Gusts: NA
Location:  35.63°N, 99.38°W
Report Text: KCSM 271753Z 22005KT 10SM CLR 23/02 A3019 RMK AO2 SLP213 T02280017 10228 20067 58001
Loading
Personal Weather Stations






























Interactive Weather Map New forecast layout! Learn more

10-Day Weather Forecast

Advertisements
Track Severe Weather on mobile